Huvudsida
METAR-TAF:

METAR-TAF

Flygplatser :

Sentani Airport

Jayapura, Indonesien

latitud: 02-34-37S, longitud: 140-30-58E, höjd: 88 m

Aktuellt väderrapport

Denna rapport gjordes för 58 minuter sedan, klockan 16:00 UTC
Stilla vind
Temperatur 26°C
Fuktighet 84%
Tryck 1007 hPa
Sikt: 9000 m
Spridda moln på en höjd av 1300 ft

METAR: WAJJ 101600Z 00000KT 9000 SCT013 26/23 Q1007 NOSIG

Tid: 23:58 (16:58 UTC)


TAF: saknas

Aktuella väderrapporter och prognoser från 4000 flygplatser (METAR- och TAF-rapporter).

De tillgängliga stationerna syns som gula och röda prickar på kartan.

För musen över prickarna för att se namnen på stationerna.

Klicka sedan för att få väderrapporter och prognoser.

För att ändra kartan: Klicka på de gröna knapparna med ett svart kors på för att zooma in; den gröna knappen med ett streck på för att zooma ut; eller på de gröna pilarna för angränsande kartor.


METAR-TAF: